Nearby METAR Reports

 

KPMD - Palmdale, California, USA
Distance from station: NNE 12mi, 19km
Updated: Sat, 21-Apr-2018 3:53am PDT
Clear
Clear
 Wind from SSW
Wind: SSW 9 mph , 15 km/h
Temperature: 48°F , 9°C
Wind Chill: 44°F , 7°C
Dew Point: 32°F , 0°C
Humidity: 54%
Barometer: 30.11 inHg , 1019.6 hPa
Clouds: Clear
Visibility: 10 miles , 16 km
2018/04/21 10:53 KPMD 211053Z AUTO 20008KT 10SM CLR 09/00 A3011 RMK AO2 SLP180 T00890000
KWJF - Lancaster/Fox, California, USA
Distance from station: N 17mi, 27km
Updated: Sat, 21-Apr-2018 3:56am PDT
Clear
Clear
 Wind from E
Wind: E 3 mph , 6 km/h
Temperature: 46°F , 8°C
Dew Point: 28°F , -2°C
Humidity: 50%
Barometer: 30.11 inHg , 1019.6 hPa
Clouds: Clear
Visibility: 10 miles , 16 km
2018/04/21 10:56 KWJF 211056Z AUTO 09003KT 10SM CLR 08/M02 A3011 RMK AO2 SLP189 T00831017
 
KMWS - Mount Wilson, California, USA
Distance from station: SSE 18mi, 30km
Updated: Wed, 13-May-2015 6:45am PDT
NOT Current

 Wind from S
Wind: S 3 mph , 6 km/h, Gust: 5 mph , 7 km/h
Temperature: 43°F , 6°C
Dew Point: -0°F , -18°C
Humidity: 16%
2015/05/13 13:45 KMWS 131345Z 18003G04KT 06/M18 RMK SNOW DEPTH 1.00
KWHP - La / Whiteman, California, USA
Distance from station: SW 21mi, 34km
Updated: Fri, 20-Apr-2018 7:55pm PDT
NOT Current
Clear
Clear
 Wind from calm
Wind: Calm
Temperature: 66°F , 19°C
Dew Point: 48°F , 9°C
Humidity: 52%
Barometer: 30.10 inHg , 1019.3 hPa
Clouds: Clear
Visibility: 10 miles , 16 km
2018/04/21 02:55 KWHP 210255Z 00000KT 10SM CLR 19/09 A3010
 
KBUR - Burbank, California, USA
Distance from station: SSW 22mi, 35km
Updated: Sat, 21-Apr-2018 3:53am PDT
Clear
Clear
 Wind from calm
Wind: Calm
Temperature: 55°F , 13°C
Dew Point: 48°F , 9°C
Humidity: 77%
Barometer: 30.04 inHg , 1017.3 hPa
Clouds: Clear
Visibility: 10 miles , 16 km
2018/04/21 10:53 KBUR 211053Z AUTO 00000KT 10SM CLR 13/09 A3004 RMK AO2 SLP163 T01280094
KVNY - Van Nuys, California, USA
Distance from station: SW 25mi, 40km
Updated: Sat, 21-Apr-2018 3:51am PDT
Clear
Clear
 Wind from SW
Wind: SW 3 mph , 6 km/h
Temperature: 54°F , 12°C
Dew Point: 48°F , 9°C
Humidity: 82%
Barometer: 30.05 inHg , 1017.6 hPa
Clouds: Clear
Visibility: 10 miles , 16 km
2018/04/21 10:51 KVNY 211051Z AUTO 22003KT 10SM CLR 12/09 A3005 RMK AO2 SLP168 T01220089
 
KEDW - Edwards Afb, California, USA
Distance from station: NNE 33mi, 53km
Updated: Sat, 21-Apr-2018 3:58am PDT
Clear
Clear
 Wind from calm
Wind: Calm
Temperature: 46°F , 8°C
Dew Point: 27°F , -3°C
Humidity: 46%
Barometer: 30.08 inHg , 1018.6 hPa
Clouds: Clear
Visibility: 10 miles , 16 km
2018/04/21 10:58 KEDW 211058Z AUTO 00000KT 10SM CLR 08/M03 A3008 RMK AO2 SLP174 T00801035
KSMO - Santa Monica, California, USA
Distance from station: SSW 35mi, 57km
Updated: Sat, 21-Apr-2018 3:51am PDT
Clear
Clear
 Wind from WSW
Wind: WSW 3 mph , 6 km/h
Temperature: 54°F , 12°C
Dew Point: 52°F , 11°C
Humidity: 94%
Barometer: 30.05 inHg , 1017.6 hPa
Clouds: Clear
Visibility: 7 miles , 11 km
2018/04/21 10:51 KSMO 211051Z AUTO 24003KT 7SM CLR 12/11 A3005 RMK AO2 SLP176 T01220111
 
KLAX - Los Angeles, California, USA
Distance from station: SSW 39mi, 63km
Updated: Sat, 21-Apr-2018 4:18am PDT
Few Clouds
Few Clouds
 Wind from WSW
Wind: WSW 5 mph , 7 km/h
Temperature: 54°F , 12°C
Dew Point: 54°F , 12°C
Humidity: 100%
Barometer: 30.06 inHg , 1017.9 hPa
Clouds: Few Clouds
Visibility: 8 miles , 13 km
Cloud details: Few Clouds 100 ft
2018/04/21 11:18 KLAX 211118Z 25004KT 8SM FEW001 12/12 A3006 RMK AO2 VIS W 3 T01220117
KMHV - Mojave, California, USA
Distance from station: N 41mi, 66km
Updated: Sat, 21-Apr-2018 4:20am PDT
Mostly cloudy
Mostly cloudy
 Wind from SW
Wind: SW 6 mph , 9 km/h
Temperature: 50°F , 10°C
Wind Chill: 48°F , 9°C
Dew Point: 23°F , -5°C
Humidity: 35%
Barometer: 30.11 inHg , 1019.6 hPa
Clouds: Mostly cloudy
Visibility: 10 miles , 16 km
Cloud details: Partly cloudy 5000 ft
Mostly cloudy 5500 ft
2018/04/21 11:20 KMHV 211120Z AUTO 23005KT 10SM SCT050 BKN055 10/M05 A3011 RMK A01
 
KFUL - Fullerton, California, USA
Distance from station: SSE 44mi, 70km
Updated: Sat, 21-Apr-2018 3:53am PDT
Clear
Clear
 Wind from calm
Wind: Calm
Temperature: 55°F , 13°C
Dew Point: 50°F , 10°C
Humidity: 82%
Barometer: 30.04 inHg , 1017.3 hPa
Clouds: Clear
Visibility: 10 miles , 16 km
2018/04/21 10:53 KFUL 211053Z AUTO 00000KT 10SM CLR 13/10 A3004 RMK AO2 SLP172 T01330100
KONT - Ontario, California, USA
Distance from station: SE 45mi, 72km
Updated: Sat, 21-Apr-2018 3:53am PDT
Clear
Clear
 Wind from NE
Wind: NE 6 mph , 9 km/h
Temperature: 54°F , 12°C
Dew Point: 43°F , 6°C
Humidity: 67%
Barometer: 30.04 inHg , 1017.3 hPa
Clouds: Clear
Visibility: 10 miles , 16 km
2018/04/21 10:53 KONT 211053Z 04005KT 10SM CLR 12/06 A3004 RMK AO2 SLP165 T01220061
 
KLGB - Long Beach, California, USA
Distance from station: S 46mi, 74km
Updated: Sat, 21-Apr-2018 3:53am PDT
Clear
Clear
 Wind from calm
Wind: Calm
Temperature: 55°F , 13°C
Dew Point: 52°F , 11°C
Humidity: 88%
Barometer: 30.05 inHg , 1017.6 hPa
Clouds: Clear
Visibility: 10 miles , 16 km
2018/04/21 10:53 KLGB 211053Z AUTO 00000KT 10SM CLR 13/11 A3005 RMK AO2 SLP175 T01330106
KVCV - Victorville, California, USA
Distance from station: E 46mi, 74km
Updated: Sat, 21-Apr-2018 4:35am PDT
Clear
Clear
 Wind from S
Wind: S 6 mph , 9 km/h
Temperature: 48°F , 9°C
Wind Chill: 45°F , 7°C
Dew Point: 30°F , -1°C
Humidity: 50%
Barometer: 30.12 inHg , 1020 hPa
Clouds: Clear
Visibility: 10 miles , 16 km
2018/04/21 11:35 KVCV 211135Z AUTO 19005KT 10SM CLR 09/M01 A3012 RMK AO2
 
KTSP - Tehachapi, California, USA
Distance from station: NNW 48mi, 77km
Updated: Sat, 21-Apr-2018 4:35am PDT
Clear
Clear
 Wind from ESE
Wind: ESE 5 mph , 7 km/h
Temperature: 36°F , 2°C
Wind Chill: 32°F , 0°C
Dew Point: 27°F , -3°C
Humidity: 70%
Barometer: 30.18 inHg , 1022 hPa
Clouds: Clear
Visibility: 10 miles , 16 km
2018/04/21 11:35 KTSP 211135Z AUTO 12004KT 10SM CLR 02/M03 A3018 RMK AO2